sensor_id;sensor_type;location;lat;lon;timestamp;pressure;altitude;pressure_sealevel;temperature;humidity
67109;BME280;54027;50.786;7.058;2022-11-20T00:01:40;100762.63;;;3.61;77.95
67109;BME280;54027;50.786;7.058;2022-11-20T00:04:06;100761.81;;;3.64;77.70
67109;BME280;54027;50.786;7.058;2022-11-20T00:06:31;100758.47;;;3.66;77.95
67109;BME280;54027;50.786;7.058;2022-11-20T00:08:58;100761.91;;;3.68;77.83
67109;BME280;54027;50.786;7.058;2022-11-20T00:11:26;100755.13;;;3.70;76.90
67109;BME280;54027;50.786;7.058;2022-11-20T00:13:54;100753.41;;;3.69;76.22
67109;BME280;54027;50.786;7.058;2022-11-20T00:16:22;100749.97;;;3.67;75.60
67109;BME280;54027;50.786;7.058;2022-11-20T00:18:48;100760.19;;;3.67;76.37
67109;BME280;54027;50.786;7.058;2022-11-20T00:21:19;100752.53;;;3.67;76.78
67109;BME280;54027;50.786;7.058;2022-11-20T00:23:45;100750.78;;;3.66;76.25
67109;BME280;54027;50.786;7.058;2022-11-20T00:26:13;100752.53;;;3.67;76.32
67109;BME280;54027;50.786;7.058;2022-11-20T00:28:39;100760.22;;;3.69;77.03
67109;BME280;54027;50.786;7.058;2022-11-20T00:31:10;100756.84;;;3.71;77.25
67109;BME280;54027;50.786;7.058;2022-11-20T00:33:36;100756.03;;;3.72;77.43
67109;BME280;54027;50.786;7.058;2022-11-20T00:36:03;100762.06;;;3.76;76.65
67109;BME280;54027;50.786;7.058;2022-11-20T00:38:30;100760.38;;;3.78;75.99
67109;BME280;54027;50.786;7.058;2022-11-20T00:40:57;100753.53;;;3.75;75.67
67109;BME280;54027;50.786;7.058;2022-11-20T00:43:22;100755.19;;;3.73;76.35
67109;BME280;54027;50.786;7.058;2022-11-20T00:45:48;100757.75;;;3.73;76.88
67109;BME280;54027;50.786;7.058;2022-11-20T00:48:13;100747.53;;;3.73;76.79
67109;BME280;54027;50.786;7.058;2022-11-20T00:50:38;100748.34;;;3.72;76.64
67109;BME280;54027;50.786;7.058;2022-11-20T00:53:04;100744.13;;;3.74;76.52
67109;BME280;54027;50.786;7.058;2022-11-20T00:55:29;100740.69;;;3.72;76.53
67109;BME280;54027;50.786;7.058;2022-11-20T00:57:55;100738.19;;;3.75;77.00
67109;BME280;54027;50.786;7.058;2022-11-20T01:00:20;100739.00;;;3.73;77.39
67109;BME280;54027;50.786;7.058;2022-11-20T01:02:45;100742.44;;;3.75;77.90
67109;BME280;54027;50.786;7.058;2022-11-20T01:05:11;100745.84;;;3.75;76.16
67109;BME280;54027;50.786;7.058;2022-11-20T01:07:36;100750.91;;;3.74;76.57
67109;BME280;54027;50.786;7.058;2022-11-20T01:10:01;100740.69;;;3.74;75.91
67109;BME280;54027;50.786;7.058;2022-11-20T01:12:27;100739.00;;;3.73;76.77
67109;BME280;54027;50.786;7.058;2022-11-20T01:14:52;100737.25;;;3.70;76.84
67109;BME280;54027;50.786;7.058;2022-11-20T01:17:17;100736.31;;;3.67;75.70
67109;BME280;54027;50.786;7.058;2022-11-20T01:19:43;100735.41;;;3.65;75.56
67109;BME280;54027;50.786;7.058;2022-11-20T01:22:09;100741.31;;;3.61;76.29
67109;BME280;54027;50.786;7.058;2022-11-20T01:24:34;100744.69;;;3.60;76.31
67109;BME280;54027;50.786;7.058;2022-11-20T01:26:59;100745.56;;;3.60;76.24
67109;BME280;54027;50.786;7.058;2022-11-20T01:29:25;100734.47;;;3.60;76.29
67109;BME280;54027;50.786;7.058;2022-11-20T01:31:50;100739.69;;;3.64;75.87
67109;BME280;54027;50.786;7.058;2022-11-20T01:34:18;100742.25;;;3.66;76.27
67109;BME280;54027;50.786;7.058;2022-11-20T01:36:45;100738.88;;;3.67;75.98
67109;BME280;54027;50.786;7.058;2022-11-20T01:39:13;100744.88;;;3.69;76.27
67109;BME280;54027;50.786;7.058;2022-11-20T01:41:39;100742.25;;;3.66;76.42
67109;BME280;54027;50.786;7.058;2022-11-20T01:47:21;100748.19;;;3.65;75.44
67109;BME280;54027;50.786;7.058;2022-11-20T01:49:54;100748.19;;;3.65;75.16
67109;BME280;54027;50.786;7.058;2022-11-20T01:52:30;100743.88;;;3.62;75.83
67109;BME280;54027;50.786;7.058;2022-11-20T01:55:01;100741.34;;;3.62;75.90
67109;BME280;54027;50.786;7.058;2022-11-20T01:57:29;100740.50;;;3.63;75.86
67109;BME280;54027;50.786;7.058;2022-11-20T02:00:17;100732.84;;;3.65;75.99
67109;BME280;54027;50.786;7.058;2022-11-20T02:02:48;100726.91;;;3.64;76.12
67109;BME280;54027;50.786;7.058;2022-11-20T02:07:59;100726.84;;;3.61;76.25
67109;BME280;54027;50.786;7.058;2022-11-20T02:10:27;100727.72;;;3.62;76.21
67109;BME280;54027;50.786;7.058;2022-11-20T02:12:53;100715.81;;;3.64;76.20
67109;BME280;54027;50.786;7.058;2022-11-20T02:15:37;100711.53;;;3.63;76.44
67109;BME280;54027;50.786;7.058;2022-11-20T02:18:04;100713.16;;;3.59;77.05
67109;BME280;54027;50.786;7.058;2022-11-20T02:20:30;100710.59;;;3.59;76.78
67109;BME280;54027;50.786;7.058;2022-11-20T02:23:03;100711.47;;;3.60;78.46
67109;BME280;54027;50.786;7.058;2022-11-20T02:25:32;100712.28;;;3.56;78.37
67109;BME280;54027;50.786;7.058;2022-11-20T02:27:58;100719.94;;;3.57;78.34
67109;BME280;54027;50.786;7.058;2022-11-20T02:30:24;100726.81;;;3.60;78.12
67109;BME280;54027;50.786;7.058;2022-11-20T02:32:49;100721.75;;;3.61;77.22
67109;BME280;54027;50.786;7.058;2022-11-20T02:37:43;100716.75;;;3.67;78.10
67109;BME280;54027;50.786;7.058;2022-11-20T02:40:10;100721.88;;;3.69;78.27
67109;BME280;54027;50.786;7.058;2022-11-20T02:42:36;100720.13;;;3.68;77.22
67109;BME280;54027;50.786;7.058;2022-11-20T02:45:06;100713.31;;;3.67;77.15
67109;BME280;54027;50.786;7.058;2022-11-20T02:47:32;100713.28;;;3.65;77.34
67109;BME280;54027;50.786;7.058;2022-11-20T02:49:57;100712.41;;;3.65;77.53
67109;BME280;54027;50.786;7.058;2022-11-20T02:52:23;100705.59;;;3.64;78.18
67109;BME280;54027;50.786;7.058;2022-11-20T02:54:49;100702.97;;;3.61;77.63
67109;BME280;54027;50.786;7.058;2022-11-20T02:57:14;100695.28;;;3.59;78.45
67109;BME280;54027;50.786;7.058;2022-11-20T02:59:40;100693.59;;;3.60;78.54
67109;BME280;54027;50.786;7.058;2022-11-20T03:02:05;100695.25;;;3.58;78.59
67109;BME280;54027;50.786;7.058;2022-11-20T03:04:31;100699.50;;;3.57;78.44
67109;BME280;54027;50.786;7.058;2022-11-20T03:06:56;100702.94;;;3.58;78.76
67109;BME280;54027;50.786;7.058;2022-11-20T03:09:22;100707.22;;;3.60;77.97
67109;BME280;54027;50.786;7.058;2022-11-20T03:11:47;100703.91;;;3.64;77.76
67109;BME280;54027;50.786;7.058;2022-11-20T03:14:12;100696.28;;;3.67;77.39
67109;BME280;54027;50.786;7.058;2022-11-20T03:16:38;100697.19;;;3.71;77.52
67109;BME280;54027;50.786;7.058;2022-11-20T03:19:03;100689.56;;;3.72;77.50
67109;BME280;54027;50.786;7.058;2022-11-20T03:21:28;100697.28;;;3.75;78.27
67109;BME280;54027;50.786;7.058;2022-11-20T03:23:54;100698.16;;;3.77;77.50
67109;BME280;54027;50.786;7.058;2022-11-20T03:26:22;100693.09;;;3.79;77.91
67109;BME280;54027;50.786;7.058;2022-11-20T03:28:52;100697.41;;;3.81;77.69
67109;BME280;54027;50.786;7.058;2022-11-20T03:31:24;100697.34;;;3.80;77.72
67109;BME280;54027;50.786;7.058;2022-11-20T03:33:50;100696.53;;;3.81;77.79
67109;BME280;54027;50.786;7.058;2022-11-20T03:36:17;100695.72;;;3.82;78.32
67109;BME280;54027;50.786;7.058;2022-11-20T03:38:43;100693.19;;;3.85;78.41
67109;BME280;54027;50.786;7.058;2022-11-20T03:41:11;100691.53;;;3.87;78.38
67109;BME280;54027;50.786;7.058;2022-11-20T03:43:37;100691.50;;;3.85;77.91
67109;BME280;54027;50.786;7.058;2022-11-20T03:46:03;100691.56;;;3.88;78.74
67109;BME280;54027;50.786;7.058;2022-11-20T03:48:29;100683.91;;;3.88;78.80
67109;BME280;54027;50.786;7.058;2022-11-20T03:53:37;100677.91;;;3.88;77.79
67109;BME280;54027;50.786;7.058;2022-11-20T03:56:02;100676.19;;;3.87;78.23
67109;BME280;54027;50.786;7.058;2022-11-20T03:58:28;100675.25;;;3.82;78.40
67109;BME280;54027;50.786;7.058;2022-11-20T04:00:53;100665.84;;;3.79;78.74
67109;BME280;54027;50.786;7.058;2022-11-20T04:03:19;100665.78;;;3.76;79.69
67109;BME280;54027;50.786;7.058;2022-11-20T04:05:44;100670.03;;;3.76;79.28
67109;BME280;54027;50.786;7.058;2022-11-20T04:08:09;100665.75;;;3.75;78.71
67109;BME280;54027;50.786;7.058;2022-11-20T04:10:35;100664.88;;;3.73;79.67
67109;BME280;54027;50.786;7.058;2022-11-20T04:13:00;100670.84;;;3.75;79.61
67109;BME280;54027;50.786;7.058;2022-11-20T04:15:25;100671.72;;;3.75;80.45
67109;BME280;54027;50.786;7.058;2022-11-20T04:17:51;100668.28;;;3.73;80.28
67109;BME280;54027;50.786;7.058;2022-11-20T04:20:16;100662.31;;;3.73;80.42
67109;BME280;54027;50.786;7.058;2022-11-20T04:22:42;100663.22;;;3.76;80.24
67109;BME280;54027;50.786;7.058;2022-11-20T04:25:07;100659.81;;;3.77;80.38
67109;BME280;54027;50.786;7.058;2022-11-20T04:27:33;100657.25;;;3.76;80.60
67109;BME280;54027;50.786;7.058;2022-11-20T04:29:58;100653.78;;;3.74;80.08
67109;BME280;54027;50.786;7.058;2022-11-20T04:32:24;100655.53;;;3.75;80.89
67109;BME280;54027;50.786;7.058;2022-11-20T04:34:49;100658.06;;;3.73;80.90
67109;BME280;54027;50.786;7.058;2022-11-20T04:37:14;100658.06;;;3.73;80.39
67109;BME280;54027;50.786;7.058;2022-11-20T04:39:40;100656.38;;;3.75;80.65
67109;BME280;54027;50.786;7.058;2022-11-20T04:42:05;100661.50;;;3.77;81.22
67109;BME280;54027;50.786;7.058;2022-11-20T04:44:49;100661.50;;;3.77;80.77
67109;BME280;54027;50.786;7.058;2022-11-20T04:47:14;100656.38;;;3.75;80.32
67109;BME280;54027;50.786;7.058;2022-11-20T04:49:39;100658.91;;;3.74;80.66
67109;BME280;54027;50.786;7.058;2022-11-20T04:52:05;100664.06;;;3.75;80.66
67109;BME280;54027;50.786;7.058;2022-11-20T04:54:30;100657.22;;;3.74;80.49
67109;BME280;54027;50.786;7.058;2022-11-20T04:56:56;100650.41;;;3.73;81.28
67109;BME280;54027;50.786;7.058;2022-11-20T04:59:21;100649.53;;;3.74;80.69
67109;BME280;54027;50.786;7.058;2022-11-20T05:01:47;100661.50;;;3.75;80.88
67109;BME280;54027;50.786;7.058;2022-11-20T05:04:12;100660.63;;;3.75;80.51
67109;BME280;54027;50.786;7.058;2022-11-20T05:06:38;100658.06;;;3.73;81.16
67109;BME280;54027;50.786;7.058;2022-11-20T05:09:03;100652.97;;;3.75;80.82
67109;BME280;54027;50.786;7.058;2022-11-20T05:11:28;100663.22;;;3.76;81.33
67109;BME280;54027;50.786;7.058;2022-11-20T05:13:54;100664.09;;;3.78;81.38
67109;BME280;54027;50.786;7.058;2022-11-20T05:16:23;100666.66;;;3.78;81.83
67109;BME280;54027;50.786;7.058;2022-11-20T05:18:50;100665.84;;;3.79;81.19
67109;BME280;54027;50.786;7.058;2022-11-20T05:21:16;100655.63;;;3.79;80.76
67109;BME280;54027;50.786;7.058;2022-11-20T05:23:42;100662.41;;;3.79;81.15
67109;BME280;54027;50.786;7.058;2022-11-20T05:26:13;100662.41;;;3.79;81.41
67109;BME280;54027;50.786;7.058;2022-11-20T05:28:38;100659.88;;;3.79;81.17
67109;BME280;54027;50.786;7.058;2022-11-20T05:31:15;100664.09;;;3.78;82.17
67109;BME280;54027;50.786;7.058;2022-11-20T05:33:42;100663.28;;;3.79;81.92
67109;BME280;54027;50.786;7.058;2022-11-20T05:36:08;100656.44;;;3.80;82.30
67109;BME280;54027;50.786;7.058;2022-11-20T05:38:34;100659.00;;;3.80;82.17
67109;BME280;54027;50.786;7.058;2022-11-20T05:41:07;100659.00;;;3.80;82.31
67109;BME280;54027;50.786;7.058;2022-11-20T05:43:37;100667.53;;;3.79;81.96
67109;BME280;54027;50.786;7.058;2022-11-20T05:46:03;100664.97;;;3.79;82.13
67109;BME280;54027;50.786;7.058;2022-11-20T05:48:31;100675.19;;;3.79;83.03
67109;BME280;54027;50.786;7.058;2022-11-20T05:50:58;100675.16;;;3.77;82.47
67109;BME280;54027;50.786;7.058;2022-11-20T05:53:23;100673.50;;;3.79;82.23
67109;BME280;54027;50.786;7.058;2022-11-20T05:56:03;100670.91;;;3.76;82.75
67109;BME280;54027;50.786;7.058;2022-11-20T05:58:30;100668.34;;;3.76;82.39
67109;BME280;54027;50.786;7.058;2022-11-20T06:01:12;100675.16;;;3.77;82.86
67109;BME280;54027;50.786;7.058;2022-11-20T06:03:39;100672.59;;;3.77;82.87
67109;BME280;54027;50.786;7.058;2022-11-20T06:06:05;100675.16;;;3.77;82.19
67109;BME280;54027;50.786;7.058;2022-11-20T06:08:31;100675.16;;;3.76;82.43
67109;BME280;54027;50.786;7.058;2022-11-20T06:10:57;100675.16;;;3.76;82.66
67109;BME280;54027;50.786;7.058;2022-11-20T06:13:23;100678.56;;;3.76;82.92
67109;BME280;54027;50.786;7.058;2022-11-20T06:15:49;100673.41;;;3.75;82.47
67109;BME280;54027;50.786;7.058;2022-11-20T06:18:15;100665.75;;;3.75;82.28
67109;BME280;54027;50.786;7.058;2022-11-20T06:20:40;100673.34;;;3.72;82.68
67109;BME280;54027;50.786;7.058;2022-11-20T06:23:06;100668.25;;;3.72;83.23
67109;BME280;54027;50.786;7.058;2022-11-20T06:25:31;100672.53;;;3.74;83.44
67109;BME280;54027;50.786;7.058;2022-11-20T06:27:56;100664.06;;;3.77;83.40
67109;BME280;54027;50.786;7.058;2022-11-20T06:30:22;100669.19;;;3.77;82.83
67109;BME280;54027;50.786;7.058;2022-11-20T06:32:47;100667.53;;;3.79;83.30
67109;BME280;54027;50.786;7.058;2022-11-20T06:35:12;100673.41;;;3.75;82.81
67109;BME280;54027;50.786;7.058;2022-11-20T06:37:38;100674.28;;;3.75;82.99
67109;BME280;54027;50.786;7.058;2022-11-20T06:40:03;100676.84;;;3.77;82.60
67109;BME280;54027;50.786;7.058;2022-11-20T06:42:29;100675.19;;;3.79;82.31
67109;BME280;54027;50.786;7.058;2022-11-20T06:44:54;100673.47;;;3.78;81.56
67109;BME280;54027;50.786;7.058;2022-11-20T06:47:19;100679.44;;;3.78;82.47
67109;BME280;54027;50.786;7.058;2022-11-20T06:49:45;100681.97;;;3.77;82.30
67109;BME280;54027;50.786;7.058;2022-11-20T06:52:10;100689.69;;;3.80;83.00
67109;BME280;54027;50.786;7.058;2022-11-20T06:54:35;100695.72;;;3.83;82.62
67109;BME280;54027;50.786;7.058;2022-11-20T06:57:01;100694.00;;;3.82;81.66
67109;BME280;54027;50.786;7.058;2022-11-20T06:59:26;100694.00;;;3.82;81.65
67109;BME280;54027;50.786;7.058;2022-11-20T07:01:51;100688.81;;;3.78;81.59
67109;BME280;54027;50.786;7.058;2022-11-20T07:04:17;100691.34;;;3.76;81.39
67109;BME280;54027;50.786;7.058;2022-11-20T07:06:42;100694.75;;;3.77;81.68
67109;BME280;54027;50.786;7.058;2022-11-20T07:09:08;100693.91;;;3.78;82.10
67109;BME280;54027;50.786;7.058;2022-11-20T07:11:33;100694.78;;;3.78;81.77
67109;BME280;54027;50.786;7.058;2022-11-20T07:13:58;100699.91;;;3.78;82.14
67109;BME280;54027;50.786;7.058;2022-11-20T07:16:24;100705.06;;;3.83;81.99
67109;BME280;54027;50.786;7.058;2022-11-20T07:18:49;100711.09;;;3.86;82.03
67109;BME280;54027;50.786;7.058;2022-11-20T07:21:14;100716.25;;;3.88;81.30
67109;BME280;54027;50.786;7.058;2022-11-20T07:23:40;100710.34;;;3.90;81.11
67109;BME280;54027;50.786;7.058;2022-11-20T07:26:07;100707.84;;;3.95;81.92
67109;BME280;54027;50.786;7.058;2022-11-20T07:28:33;100707.88;;;3.96;80.57
67109;BME280;54027;50.786;7.058;2022-11-20T07:30:58;100713.06;;;3.99;80.48
67109;BME280;54027;50.786;7.058;2022-11-20T07:33:24;100712.25;;;4.02;80.92
67109;BME280;54027;50.786;7.058;2022-11-20T07:35:49;100714.03;;;4.07;80.88
67109;BME280;54027;50.786;7.058;2022-11-20T07:38:14;100715.81;;;4.12;80.71
67109;BME280;54027;50.786;7.058;2022-11-20T07:40:40;100719.25;;;4.14;80.32
67109;BME280;54027;50.786;7.058;2022-11-20T07:43:05;100711.63;;;4.17;80.01
67109;BME280;54027;50.786;7.058;2022-11-20T07:45:31;100712.50;;;4.17;79.76
67109;BME280;54027;50.786;7.058;2022-11-20T07:47:56;100719.38;;;4.20;80.34
67109;BME280;54027;50.786;7.058;2022-11-20T07:50:21;100711.69;;;4.21;80.60
67109;BME280;54027;50.786;7.058;2022-11-20T07:52:47;100709.22;;;4.26;80.05
67109;BME280;54027;50.786;7.058;2022-11-20T07:55:12;100713.53;;;4.27;79.51
67109;BME280;54027;50.786;7.058;2022-11-20T07:57:38;100718.69;;;4.30;79.50
67109;BME280;54027;50.786;7.058;2022-11-20T08:00:05;100706.72;;;4.30;79.87
67109;BME280;54027;50.786;7.058;2022-11-20T08:02:30;100705.94;;;4.34;80.33
67109;BME280;54027;50.786;7.058;2022-11-20T08:04:56;100711.97;;;4.38;80.48
67109;BME280;54027;50.786;7.058;2022-11-20T08:07:21;100712.91;;;4.43;80.13
67109;BME280;54027;50.786;7.058;2022-11-20T08:09:46;100717.25;;;4.48;80.19
67109;BME280;54027;50.786;7.058;2022-11-20T08:12:19;100706.28;;;4.55;80.05
67109;BME280;54027;50.786;7.058;2022-11-20T08:15:04;100703.03;;;4.65;79.92
67109;BME280;54027;50.786;7.058;2022-11-20T08:17:30;100698.88;;;4.75;80.09
67109;BME280;54027;50.786;7.058;2022-11-20T08:19:55;100692.88;;;4.75;78.93
67109;BME280;54027;50.786;7.058;2022-11-20T08:22:20;100704.91;;;4.79;78.21
67109;BME280;54027;50.786;7.058;2022-11-20T08:24:46;100702.47;;;4.88;79.07
67109;BME280;54027;50.786;7.058;2022-11-20T08:27:11;100705.16;;;4.97;79.53
67109;BME280;54027;50.786;7.058;2022-11-20T08:29:37;100707.81;;;5.04;78.69
67109;BME280;54027;50.786;7.058;2022-11-20T08:32:02;100701.94;;;5.11;79.32
67109;BME280;54027;50.786;7.058;2022-11-20T08:34:28;100693.50;;;5.18;78.06
67109;BME280;54027;50.786;7.058;2022-11-20T08:36:53;100696.97;;;5.25;77.63
67109;BME280;54027;50.786;7.058;2022-11-20T08:39:19;100702.13;;;5.28;77.82
67109;BME280;54027;50.786;7.058;2022-11-20T08:41:44;100704.75;;;5.33;78.07
67109;BME280;54027;50.786;7.058;2022-11-20T08:44:12;100709.06;;;5.35;77.64
67109;BME280;54027;50.786;7.058;2022-11-20T08:46:41;100703.97;;;5.38;77.02
67109;BME280;54027;50.786;7.058;2022-11-20T08:49:10;100704.78;;;5.37;77.21
67109;BME280;54027;50.786;7.058;2022-11-20T08:51:36;100702.25;;;5.40;77.47
67109;BME280;54027;50.786;7.058;2022-11-20T08:54:03;100702.38;;;5.49;77.88
67109;BME280;54027;50.786;7.058;2022-11-20T08:56:28;100712.72;;;5.58;76.66
67109;BME280;54027;50.786;7.058;2022-11-20T08:58:54;100697.41;;;5.63;75.99
67109;BME280;54027;50.786;7.058;2022-11-20T09:01:20;100702.56;;;5.67;76.76
67109;BME280;54027;50.786;7.058;2022-11-20T09:03:49;100700.00;;;5.66;76.46
67109;BME280;54027;50.786;7.058;2022-11-20T09:06:14;100698.22;;;5.59;75.83
67109;BME280;54027;50.786;7.058;2022-11-20T09:08:40;100691.38;;;5.61;76.37
67109;BME280;54027;50.786;7.058;2022-11-20T09:11:06;100707.59;;;5.57;75.92
67109;BME280;54027;50.786;7.058;2022-11-20T09:13:32;100696.50;;;5.61;75.96
67109;BME280;54027;50.786;7.058;2022-11-20T09:16:03;100696.56;;;5.67;75.63
67109;BME280;54027;50.786;7.058;2022-11-20T09:18:29;100694.09;;;5.74;76.14
67109;BME280;54027;50.786;7.058;2022-11-20T09:21:01;100694.19;;;5.85;75.91
67109;BME280;54027;50.786;7.058;2022-11-20T09:23:31;100695.19;;;5.98;75.12
67109;BME280;54027;50.786;7.058;2022-11-20T09:28:30;100690.16;;;6.11;75.13
67109;BME280;54027;50.786;7.058;2022-11-20T09:30:55;100685.00;;;6.08;74.84
67109;BME280;54027;50.786;7.058;2022-11-20T09:33:24;100686.66;;;6.03;74.97
67109;BME280;54027;50.786;7.058;2022-11-20T09:35:49;100675.59;;;6.07;74.04
67109;BME280;54027;50.786;7.058;2022-11-20T09:38:14;100677.31;;;6.11;75.00
67109;BME280;54027;50.786;7.058;2022-11-20T09:40:48;100675.69;;;6.21;74.79
67109;BME280;54027;50.786;7.058;2022-11-20T09:51:46;100669.25;;;6.83;73.49
67109;BME280;54027;50.786;7.058;2022-11-20T09:54:20;100675.31;;;6.98;72.75
67109;BME280;54027;50.786;7.058;2022-11-20T09:56:50;100677.03;;;7.03;72.26
67109;BME280;54027;50.786;7.058;2022-11-20T09:59:40;100674.47;;;7.06;72.38
67109;BME280;54027;50.786;7.058;2022-11-20T10:02:28;100674.47;;;7.06;71.77
67109;BME280;54027;50.786;7.058;2022-11-20T10:05:11;100670.25;;;7.11;71.81
67109;BME280;54027;50.786;7.058;2022-11-20T10:07:43;100677.97;;;7.14;72.15
67109;BME280;54027;50.786;7.058;2022-11-20T10:10:15;100672.03;;;7.20;71.65
67109;BME280;54027;50.786;7.058;2022-11-20T10:12:53;100671.19;;;7.28;71.27
67109;BME280;54027;50.786;7.058;2022-11-20T10:15:29;100668.63;;;7.24;70.51
67109;BME280;54027;50.786;7.058;2022-11-20T10:18:11;100671.91;;;7.06;71.78
67109;BME280;54027;50.786;7.058;2022-11-20T10:20:49;100660.75;;;6.95;71.60
67109;BME280;54027;50.786;7.058;2022-11-20T10:28:48;100645.38;;;7.07;71.94
67109;BME280;54027;50.786;7.058;2022-11-20T10:31:33;100630.88;;;7.18;71.28
67109;BME280;54027;50.786;7.058;2022-11-20T10:34:05;100625.72;;;7.18;70.45
67109;BME280;54027;50.786;7.058;2022-11-20T10:36:44;100616.38;;;7.29;70.07
67109;BME280;54027;50.786;7.058;2022-11-20T10:41:49;100612.09;;;7.40;70.19
67109;BME280;54027;50.786;7.058;2022-11-20T10:44:19;100611.22;;;7.37;69.80
67109;BME280;54027;50.786;7.058;2022-11-20T10:47:05;100605.22;;;7.32;69.46
67109;BME280;54027;50.786;7.058;2022-11-20T10:49:32;100606.91;;;7.27;70.22
67109;BME280;54027;50.786;7.058;2022-11-20T10:52:09;100603.47;;;7.17;70.63
67109;BME280;54027;50.786;7.058;2022-11-20T10:54:39;100607.66;;;7.06;71.60
67109;BME280;54027;50.786;7.058;2022-11-20T10:59:59;100598.19;;;6.91;72.34
67109;BME280;54027;50.786;7.058;2022-11-20T11:02:43;100600.72;;;6.82;72.79
67109;BME280;54027;50.786;7.058;2022-11-20T11:05:29;100592.97;;;6.66;72.54
67109;BME280;54027;50.786;7.058;2022-11-20T11:07:58;100593.78;;;6.62;73.16
67109;BME280;54027;50.786;7.058;2022-11-20T11:10:32;100578.34;;;6.53;73.26
67109;BME280;54027;50.786;7.058;2022-11-20T11:13:01;100575.75;;;6.50;74.52
67109;BME280;54027;50.786;7.058;2022-11-20T11:15:29;100579.19;;;6.53;74.81
67109;BME280;54027;50.786;7.058;2022-11-20T11:17:56;100580.97;;;6.68;74.61
67109;BME280;54027;50.786;7.058;2022-11-20T11:20:24;100567.34;;;6.84;74.42
67109;BME280;54027;50.786;7.058;2022-11-20T11:25:34;100555.41;;;7.04;73.25
67109;BME280;54027;50.786;7.058;2022-11-20T11:28:02;100547.78;;;7.16;72.82
67109;BME280;54027;50.786;7.058;2022-11-20T11:30:29;100543.50;;;7.26;71.92
67109;BME280;54027;50.786;7.058;2022-11-20T11:33:04;100547.78;;;7.25;72.33
67109;BME280;54027;50.786;7.058;2022-11-20T11:35:30;100542.59;;;7.09;72.69
67109;BME280;54027;50.786;7.058;2022-11-20T11:38:05;100528.88;;;7.08;73.08
67109;BME280;54027;50.786;7.058;2022-11-20T11:40:33;100526.31;;;7.13;72.90
67109;BME280;54027;50.786;7.058;2022-11-20T11:43:02;100526.31;;;7.08;72.52
67109;BME280;54027;50.786;7.058;2022-11-20T11:45:29;100524.59;;;7.03;73.03
67109;BME280;54027;50.786;7.058;2022-11-20T11:48:00;100527.13;;;6.92;73.03
67109;BME280;54027;50.786;7.058;2022-11-20T11:50:29;100526.25;;;6.81;74.07
67109;BME280;54027;50.786;7.058;2022-11-20T12:00:54;100515.94;;;6.73;74.73
67109;BME280;54027;50.786;7.058;2022-11-20T12:03:36;100513.38;;;6.78;75.05
67109;BME280;54027;50.786;7.058;2022-11-20T12:06:13;100514.25;;;6.83;75.07
67109;BME280;54027;50.786;7.058;2022-11-20T12:09:24;100508.28;;;6.91;74.54
67109;BME280;54027;50.786;7.058;2022-11-20T12:11:51;100484.31;;;6.94;73.77
67109;BME280;54027;50.786;7.058;2022-11-20T12:14:30;100492.88;;;6.93;74.65
67109;BME280;54027;50.786;7.058;2022-11-20T12:17:00;100486.88;;;6.96;74.34
67109;BME280;54027;50.786;7.058;2022-11-20T12:19:27;100477.47;;;7.07;73.95
67109;BME280;54027;50.786;7.058;2022-11-20T12:30:27;100466.41;;;7.44;73.00
67109;BME280;54027;50.786;7.058;2022-11-20T12:55:16;100429.47;;;7.66;72.28
67109;BME280;54027;50.786;7.058;2022-11-20T13:00:27;100426.06;;;7.64;73.01
67109;BME280;54027;50.786;7.058;2022-11-20T13:05:24;100417.47;;;7.67;72.50
67109;BME280;54027;50.786;7.058;2022-11-20T13:07:53;100414.06;;;7.66;72.86
67109;BME280;54027;50.786;7.058;2022-11-20T13:10:43;100402.03;;;7.73;72.99
67109;BME280;54027;50.786;7.058;2022-11-20T13:19:11;100387.47;;;7.70;73.31
67109;BME280;54027;50.786;7.058;2022-11-20T13:21:40;100383.16;;;7.72;72.84
67109;BME280;54027;50.786;7.058;2022-11-20T13:26:43;100373.78;;;7.68;73.53
67109;BME280;54027;50.786;7.058;2022-11-20T13:29:12;100381.47;;;7.74;73.68
67109;BME280;54027;50.786;7.058;2022-11-20T13:31:43;100372.00;;;7.72;72.92
67109;BME280;54027;50.786;7.058;2022-11-20T13:34:12;100368.63;;;7.64;74.02
67109;BME280;54027;50.786;7.058;2022-11-20T13:36:50;100363.50;;;7.59;74.21
67109;BME280;54027;50.786;7.058;2022-11-20T13:39:33;100362.63;;;7.65;74.57
67109;BME280;54027;50.786;7.058;2022-11-20T13:42:23;100354.88;;;7.66;75.12
67109;BME280;54027;50.786;7.058;2022-11-20T13:45:01;100351.44;;;7.72;75.39
67109;BME280;54027;50.786;7.058;2022-11-20T13:47:28;100343.72;;;7.72;75.55
67109;BME280;54027;50.786;7.058;2022-11-20T13:49:58;100338.56;;;7.75;75.48
67109;BME280;54027;50.786;7.058;2022-11-20T13:55:38;100335.97;;;7.84;75.58
67109;BME280;54027;50.786;7.058;2022-11-20T14:01:23;100314.50;;;7.86;75.66
67109;BME280;54027;50.786;7.058;2022-11-20T14:03:50;100315.38;;;7.84;75.27
67109;BME280;54027;50.786;7.058;2022-11-20T14:08:48;100301.66;;;7.77;76.33
67109;BME280;54027;50.786;7.058;2022-11-20T14:11:20;100305.13;;;7.76;76.29
67109;BME280;54027;50.786;7.058;2022-11-20T14:14:00;100294.84;;;7.72;76.51
67109;BME280;54027;50.786;7.058;2022-11-20T14:16:29;100293.16;;;7.68;76.93
67109;BME280;54027;50.786;7.058;2022-11-20T14:18:56;100294.88;;;7.67;77.12
67109;BME280;54027;50.786;7.058;2022-11-20T14:21:27;100290.59;;;7.68;77.33
67109;BME280;54027;50.786;7.058;2022-11-20T14:24:02;100288.00;;;7.66;77.69
67109;BME280;54027;50.786;7.058;2022-11-20T14:26:28;100282.84;;;7.69;77.37
67109;BME280;54027;50.786;7.058;2022-11-20T14:28:53;100277.72;;;7.71;77.85
67109;BME280;54027;50.786;7.058;2022-11-20T14:31:24;100271.72;;;7.70;77.68
67109;BME280;54027;50.786;7.058;2022-11-20T14:33:52;100269.16;;;7.67;77.73
67109;BME280;54027;50.786;7.058;2022-11-20T14:36:21;100269.13;;;7.69;78.08
67109;BME280;54027;50.786;7.058;2022-11-20T14:38:47;100264.84;;;7.69;78.26
67109;BME280;54027;50.786;7.058;2022-11-20T14:41:19;100252.88;;;7.68;77.84
67109;BME280;54027;50.786;7.058;2022-11-20T14:43:46;100254.56;;;7.69;78.04